sensor_id;sensor_type;location;lat;lon;timestamp;P1;durP1;ratioP1;P2;durP2;ratioP2
16577;SDS011;8401;52.528;13.340;2022-09-03T00:01:07;4.13;;;1.77;;
16577;SDS011;8401;52.528;13.340;2022-09-03T00:03:42;2.57;;;1.60;;
16577;SDS011;8401;52.528;13.340;2022-09-03T00:06:12;2.80;;;1.43;;
16577;SDS011;8401;52.528;13.340;2022-09-03T00:11:20;2.70;;;1.67;;
16577;SDS011;8401;52.528;13.340;2022-09-03T00:14:03;1.80;;;1.00;;
16577;SDS011;8401;52.528;13.340;2022-09-03T00:16:43;4.80;;;1.63;;
16577;SDS011;8401;52.528;13.340;2022-09-03T00:19:09;1.67;;;1.30;;
16577;SDS011;8401;52.528;13.340;2022-09-03T00:21:42;2.27;;;1.40;;
16577;SDS011;8401;52.528;13.340;2022-09-03T00:24:12;2.00;;;1.10;;
16577;SDS011;8401;52.528;13.340;2022-09-03T00:26:41;3.57;;;1.53;;
16577;SDS011;8401;52.528;13.340;2022-09-03T00:29:18;1.37;;;1.10;;
16577;SDS011;8401;52.528;13.340;2022-09-03T00:31:49;2.07;;;1.20;;
16577;SDS011;8401;52.528;13.340;2022-09-03T00:37:10;2.53;;;1.03;;
16577;SDS011;8401;52.528;13.340;2022-09-03T00:39:36;2.73;;;1.03;;
16577;SDS011;8401;52.528;13.340;2022-09-03T00:44:53;3.77;;;1.30;;
16577;SDS011;8401;52.528;13.340;2022-09-03T00:50:20;2.13;;;0.97;;
16577;SDS011;8401;52.528;13.340;2022-09-03T00:58:46;1.50;;;1.13;;
16577;SDS011;8401;52.528;13.340;2022-09-03T01:01:44;1.90;;;1.20;;
16577;SDS011;8401;52.528;13.340;2022-09-03T01:33:48;1.90;;;1.10;;
16577;SDS011;8401;52.528;13.340;2022-09-03T01:36:31;3.47;;;1.23;;
16577;SDS011;8401;52.528;13.340;2022-09-03T01:53:31;3.80;;;1.10;;
16577;SDS011;8401;52.528;13.340;2022-09-03T01:56:01;2.70;;;1.43;;
16577;SDS011;8401;52.528;13.340;2022-09-03T01:58:44;2.30;;;1.10;;
16577;SDS011;8401;52.528;13.340;2022-09-03T02:01:27;4.07;;;1.90;;
16577;SDS011;8401;52.528;13.340;2022-09-03T02:03:57;3.87;;;1.77;;
16577;SDS011;8401;52.528;13.340;2022-09-03T02:06:24;5.53;;;2.43;;
16577;SDS011;8401;52.528;13.340;2022-09-03T02:08:51;2.57;;;1.27;;
16577;SDS011;8401;52.528;13.340;2022-09-03T02:11:17;3.67;;;1.73;;
16577;SDS011;8401;52.528;13.340;2022-09-03T02:13:45;2.93;;;1.53;;
16577;SDS011;8401;52.528;13.340;2022-09-03T02:16:23;3.03;;;1.30;;
16577;SDS011;8401;52.528;13.340;2022-09-03T02:18:56;4.00;;;2.17;;
16577;SDS011;8401;52.528;13.340;2022-09-03T02:21:27;4.30;;;1.60;;
16577;SDS011;8401;52.528;13.340;2022-09-03T02:23:58;2.90;;;1.50;;
16577;SDS011;8401;52.528;13.340;2022-09-03T02:26:24;6.03;;;2.10;;
16577;SDS011;8401;52.528;13.340;2022-09-03T02:28:51;4.30;;;2.73;;
16577;SDS011;8401;52.528;13.340;2022-09-03T02:31:18;3.53;;;1.70;;
16577;SDS011;8401;52.528;13.340;2022-09-03T02:33:44;3.67;;;2.07;;
16577;SDS011;8401;52.528;13.340;2022-09-03T02:36:12;5.93;;;2.27;;
16577;SDS011;8401;52.528;13.340;2022-09-03T02:38:42;1.50;;;1.17;;
16577;SDS011;8401;52.528;13.340;2022-09-03T02:41:08;5.60;;;2.23;;
16577;SDS011;8401;52.528;13.340;2022-09-03T02:46:28;5.33;;;1.23;;
16577;SDS011;8401;52.528;13.340;2022-09-03T02:48:59;3.73;;;1.17;;
16577;SDS011;8401;52.528;13.340;2022-09-03T02:51:25;2.60;;;1.30;;
16577;SDS011;8401;52.528;13.340;2022-09-03T02:53:50;2.10;;;1.10;;
16577;SDS011;8401;52.528;13.340;2022-09-03T02:56:16;2.33;;;1.43;;
16577;SDS011;8401;52.528;13.340;2022-09-03T02:58:42;1.80;;;1.50;;
16577;SDS011;8401;52.528;13.340;2022-09-03T03:01:07;3.30;;;1.47;;
16577;SDS011;8401;52.528;13.340;2022-09-03T03:03:33;1.97;;;1.23;;
16577;SDS011;8401;52.528;13.340;2022-09-03T03:06:02;2.27;;;1.10;;
16577;SDS011;8401;52.528;13.340;2022-09-03T03:08:29;1.10;;;1.00;;
16577;SDS011;8401;52.528;13.340;2022-09-03T03:10:57;2.23;;;1.30;;
16577;SDS011;8401;52.528;13.340;2022-09-03T03:13:25;1.53;;;1.10;;
16577;SDS011;8401;52.528;13.340;2022-09-03T03:15:54;1.97;;;1.30;;
16577;SDS011;8401;52.528;13.340;2022-09-03T03:18:21;3.10;;;1.17;;
16577;SDS011;8401;52.528;13.340;2022-09-03T03:20:47;1.40;;;1.20;;
16577;SDS011;8401;52.528;13.340;2022-09-03T03:23:13;3.43;;;1.10;;
16577;SDS011;8401;52.528;13.340;2022-09-03T03:25:39;3.30;;;1.40;;
16577;SDS011;8401;52.528;13.340;2022-09-03T03:28:05;2.63;;;1.40;;
16577;SDS011;8401;52.528;13.340;2022-09-03T03:30:31;2.00;;;0.90;;
16577;SDS011;8401;52.528;13.340;2022-09-03T03:32:57;2.70;;;1.03;;
16577;SDS011;8401;52.528;13.340;2022-09-03T03:35:23;1.50;;;1.10;;
16577;SDS011;8401;52.528;13.340;2022-09-03T03:37:48;2.87;;;1.10;;
16577;SDS011;8401;52.528;13.340;2022-09-03T03:40:14;1.77;;;1.27;;
16577;SDS011;8401;52.528;13.340;2022-09-03T03:42:40;2.57;;;1.00;;
16577;SDS011;8401;52.528;13.340;2022-09-03T03:45:06;3.50;;;1.07;;
16577;SDS011;8401;52.528;13.340;2022-09-03T03:47:34;2.00;;;1.20;;
16577;SDS011;8401;52.528;13.340;2022-09-03T03:50:00;2.47;;;1.10;;
16577;SDS011;8401;52.528;13.340;2022-09-03T03:52:27;2.57;;;1.13;;
16577;SDS011;8401;52.528;13.340;2022-09-03T03:54:53;1.43;;;1.10;;
16577;SDS011;8401;52.528;13.340;2022-09-03T03:57:19;3.47;;;1.40;;
16577;SDS011;8401;52.528;13.340;2022-09-03T03:59:45;2.80;;;1.30;;
16577;SDS011;8401;52.528;13.340;2022-09-03T04:02:12;2.77;;;1.30;;
16577;SDS011;8401;52.528;13.340;2022-09-03T04:04:38;4.20;;;1.27;;
16577;SDS011;8401;52.528;13.340;2022-09-03T04:07:04;1.53;;;1.20;;
16577;SDS011;8401;52.528;13.340;2022-09-03T04:09:30;2.90;;;1.10;;
16577;SDS011;8401;52.528;13.340;2022-09-03T04:11:56;5.30;;;1.33;;
16577;SDS011;8401;52.528;13.340;2022-09-03T04:14:22;2.40;;;1.47;;
16577;SDS011;8401;52.528;13.340;2022-09-03T04:16:48;1.90;;;1.33;;
16577;SDS011;8401;52.528;13.340;2022-09-03T04:19:15;3.17;;;1.67;;
16577;SDS011;8401;52.528;13.340;2022-09-03T04:21:41;2.53;;;1.20;;
16577;SDS011;8401;52.528;13.340;2022-09-03T04:24:07;2.07;;;1.40;;
16577;SDS011;8401;52.528;13.340;2022-09-03T04:26:32;2.47;;;1.33;;
16577;SDS011;8401;52.528;13.340;2022-09-03T04:28:59;2.37;;;1.50;;
16577;SDS011;8401;52.528;13.340;2022-09-03T04:31:27;2.20;;;1.30;;
16577;SDS011;8401;52.528;13.340;2022-09-03T04:33:53;4.57;;;1.60;;
16577;SDS011;8401;52.528;13.340;2022-09-03T04:36:19;2.03;;;1.20;;
16577;SDS011;8401;52.528;13.340;2022-09-03T04:38:48;3.50;;;1.20;;
16577;SDS011;8401;52.528;13.340;2022-09-03T04:41:16;1.60;;;1.50;;
16577;SDS011;8401;52.528;13.340;2022-09-03T04:43:43;2.47;;;1.67;;
16577;SDS011;8401;52.528;13.340;2022-09-03T04:46:10;4.20;;;1.60;;
16577;SDS011;8401;52.528;13.340;2022-09-03T04:48:37;2.73;;;1.60;;
16577;SDS011;8401;52.528;13.340;2022-09-03T04:51:06;2.97;;;1.57;;
16577;SDS011;8401;52.528;13.340;2022-09-03T04:53:34;1.90;;;1.67;;
16577;SDS011;8401;52.528;13.340;2022-09-03T04:56:02;2.97;;;1.90;;
16577;SDS011;8401;52.528;13.340;2022-09-03T04:58:35;2.43;;;1.50;;
16577;SDS011;8401;52.528;13.340;2022-09-03T05:01:06;3.67;;;1.70;;
16577;SDS011;8401;52.528;13.340;2022-09-03T05:03:32;3.40;;;1.53;;
16577;SDS011;8401;52.528;13.340;2022-09-03T05:05:58;3.50;;;1.87;;
16577;SDS011;8401;52.528;13.340;2022-09-03T05:08:24;3.03;;;1.87;;
16577;SDS011;8401;52.528;13.340;2022-09-03T05:10:56;3.37;;;1.50;;
16577;SDS011;8401;52.528;13.340;2022-09-03T05:13:24;3.23;;;1.70;;
16577;SDS011;8401;52.528;13.340;2022-09-03T05:15:50;3.20;;;1.77;;
16577;SDS011;8401;52.528;13.340;2022-09-03T05:18:15;2.83;;;1.57;;
16577;SDS011;8401;52.528;13.340;2022-09-03T05:20:42;4.37;;;1.77;;
16577;SDS011;8401;52.528;13.340;2022-09-03T05:23:08;4.47;;;1.37;;
16577;SDS011;8401;52.528;13.340;2022-09-03T05:25:34;3.03;;;1.70;;
16577;SDS011;8401;52.528;13.340;2022-09-03T05:28:02;2.37;;;1.53;;
16577;SDS011;8401;52.528;13.340;2022-09-03T05:30:28;2.70;;;1.57;;
16577;SDS011;8401;52.528;13.340;2022-09-03T05:32:54;3.13;;;1.50;;
16577;SDS011;8401;52.528;13.340;2022-09-03T05:35:20;3.60;;;1.93;;
16577;SDS011;8401;52.528;13.340;2022-09-03T05:37:46;3.50;;;1.70;;
16577;SDS011;8401;52.528;13.340;2022-09-03T05:40:12;4.87;;;1.60;;
16577;SDS011;8401;52.528;13.340;2022-09-03T05:42:37;4.43;;;1.80;;
16577;SDS011;8401;52.528;13.340;2022-09-03T05:45:07;1.43;;;1.20;;
16577;SDS011;8401;52.528;13.340;2022-09-03T05:47:35;2.33;;;1.70;;
16577;SDS011;8401;52.528;13.340;2022-09-03T05:50:05;3.40;;;2.00;;
16577;SDS011;8401;52.528;13.340;2022-09-03T05:52:33;3.03;;;1.53;;
16577;SDS011;8401;52.528;13.340;2022-09-03T05:54:58;2.57;;;2.00;;
16577;SDS011;8401;52.528;13.340;2022-09-03T05:57:24;2.20;;;1.53;;
16577;SDS011;8401;52.528;13.340;2022-09-03T05:59:50;1.70;;;1.53;;
16577;SDS011;8401;52.528;13.340;2022-09-03T06:02:16;6.73;;;2.37;;
16577;SDS011;8401;52.528;13.340;2022-09-03T06:04:43;2.00;;;1.80;;
16577;SDS011;8401;52.528;13.340;2022-09-03T06:07:08;3.23;;;1.70;;
16577;SDS011;8401;52.528;13.340;2022-09-03T06:09:34;1.87;;;1.20;;
16577;SDS011;8401;52.528;13.340;2022-09-03T06:11:59;2.30;;;1.90;;
16577;SDS011;8401;52.528;13.340;2022-09-03T06:14:25;3.17;;;1.67;;
16577;SDS011;8401;52.528;13.340;2022-09-03T06:16:51;3.20;;;1.60;;
16577;SDS011;8401;52.528;13.340;2022-09-03T06:19:17;2.80;;;1.80;;
16577;SDS011;8401;52.528;13.340;2022-09-03T06:21:43;2.57;;;2.20;;
16577;SDS011;8401;52.528;13.340;2022-09-03T06:24:11;4.33;;;1.93;;
16577;SDS011;8401;52.528;13.340;2022-09-03T06:26:38;3.40;;;2.17;;
16577;SDS011;8401;52.528;13.340;2022-09-03T06:29:04;5.27;;;2.37;;
16577;SDS011;8401;52.528;13.340;2022-09-03T06:31:30;3.17;;;2.80;;
16577;SDS011;8401;52.528;13.340;2022-09-03T06:33:56;3.47;;;1.90;;
16577;SDS011;8401;52.528;13.340;2022-09-03T06:36:22;4.57;;;2.80;;
16577;SDS011;8401;52.528;13.340;2022-09-03T06:38:52;5.17;;;2.50;;
16577;SDS011;8401;52.528;13.340;2022-09-03T06:41:20;4.23;;;2.13;;
16577;SDS011;8401;52.528;13.340;2022-09-03T06:44:04;4.10;;;2.10;;
16577;SDS011;8401;52.528;13.340;2022-09-03T06:46:35;5.40;;;2.17;;
16577;SDS011;8401;52.528;13.340;2022-09-03T06:49:03;5.93;;;2.77;;
16577;SDS011;8401;52.528;13.340;2022-09-03T06:51:29;2.63;;;1.93;;
16577;SDS011;8401;52.528;13.340;2022-09-03T06:54:01;3.27;;;1.83;;
16577;SDS011;8401;52.528;13.340;2022-09-03T06:56:28;3.47;;;1.87;;
16577;SDS011;8401;52.528;13.340;2022-09-03T06:58:58;2.77;;;1.73;;
16577;SDS011;8401;52.528;13.340;2022-09-03T07:01:28;3.80;;;1.57;;
16577;SDS011;8401;52.528;13.340;2022-09-03T07:04:01;3.77;;;1.87;;
16577;SDS011;8401;52.528;13.340;2022-09-03T07:06:33;4.27;;;1.80;;
16577;SDS011;8401;52.528;13.340;2022-09-03T07:09:06;2.63;;;1.70;;
16577;SDS011;8401;52.528;13.340;2022-09-03T07:11:33;1.83;;;1.50;;
16577;SDS011;8401;52.528;13.340;2022-09-03T07:14:00;5.23;;;1.70;;
16577;SDS011;8401;52.528;13.340;2022-09-03T07:16:29;1.77;;;1.50;;
16577;SDS011;8401;52.528;13.340;2022-09-03T07:18:58;3.77;;;1.97;;
16577;SDS011;8401;52.528;13.340;2022-09-03T07:21:25;2.10;;;1.87;;
16577;SDS011;8401;52.528;13.340;2022-09-03T07:23:53;2.57;;;1.73;;
16577;SDS011;8401;52.528;13.340;2022-09-03T07:26:20;4.10;;;1.73;;
16577;SDS011;8401;52.528;13.340;2022-09-03T07:28:50;3.13;;;2.27;;
16577;SDS011;8401;52.528;13.340;2022-09-03T07:31:19;8.27;;;5.83;;
16577;SDS011;8401;52.528;13.340;2022-09-03T07:33:49;5.87;;;3.50;;
16577;SDS011;8401;52.528;13.340;2022-09-03T07:36:23;3.60;;;2.53;;
16577;SDS011;8401;52.528;13.340;2022-09-03T07:38:53;5.10;;;3.20;;
16577;SDS011;8401;52.528;13.340;2022-09-03T07:41:20;5.13;;;3.23;;
16577;SDS011;8401;52.528;13.340;2022-09-03T07:43:47;6.37;;;2.20;;
16577;SDS011;8401;52.528;13.340;2022-09-03T07:46:14;4.97;;;3.13;;
16577;SDS011;8401;52.528;13.340;2022-09-03T07:48:46;8.63;;;3.90;;
16577;SDS011;8401;52.528;13.340;2022-09-03T07:51:13;7.23;;;3.17;;
16577;SDS011;8401;52.528;13.340;2022-09-03T07:53:39;2.40;;;1.73;;
16577;SDS011;8401;52.528;13.340;2022-09-03T07:56:05;3.43;;;2.10;;
16577;SDS011;8401;52.528;13.340;2022-09-03T07:58:33;3.03;;;1.90;;
16577;SDS011;8401;52.528;13.340;2022-09-03T08:01:04;5.30;;;4.17;;
16577;SDS011;8401;52.528;13.340;2022-09-03T08:03:32;5.70;;;3.67;;
16577;SDS011;8401;52.528;13.340;2022-09-03T08:06:02;4.67;;;3.10;;
16577;SDS011;8401;52.528;13.340;2022-09-03T08:08:30;4.70;;;2.20;;
16577;SDS011;8401;52.528;13.340;2022-09-03T08:11:19;3.43;;;2.00;;
16577;SDS011;8401;52.528;13.340;2022-09-03T08:13:46;3.20;;;1.90;;
16577;SDS011;8401;52.528;13.340;2022-09-03T08:16:17;2.87;;;1.60;;
16577;SDS011;8401;52.528;13.340;2022-09-03T08:18:43;5.93;;;3.23;;
16577;SDS011;8401;52.528;13.340;2022-09-03T08:21:15;3.93;;;2.40;;
16577;SDS011;8401;52.528;13.340;2022-09-03T08:23:43;2.53;;;1.37;;
16577;SDS011;8401;52.528;13.340;2022-09-03T08:26:17;2.50;;;1.80;;
16577;SDS011;8401;52.528;13.340;2022-09-03T08:28:44;4.27;;;3.27;;
16577;SDS011;8401;52.528;13.340;2022-09-03T08:31:13;2.20;;;2.00;;
16577;SDS011;8401;52.528;13.340;2022-09-03T08:33:45;2.73;;;1.93;;
16577;SDS011;8401;52.528;13.340;2022-09-03T08:38:47;3.13;;;1.90;;
16577;SDS011;8401;52.528;13.340;2022-09-03T08:54:56;4.88;;;2.45;;
16577;SDS011;8401;52.528;13.340;2022-09-03T08:57:49;4.55;;;2.42;;
16577;SDS011;8401;52.528;13.340;2022-09-03T09:00:17;6.20;;;2.55;;
16577;SDS011;8401;52.528;13.340;2022-09-03T09:03:00;2.30;;;1.70;;
16577;SDS011;8401;52.528;13.340;2022-09-03T09:05:50;2.92;;;2.22;;
16577;SDS011;8401;52.528;13.340;2022-09-03T09:09:08;4.28;;;2.55;;
16577;SDS011;8401;52.528;13.340;2022-09-03T09:16:46;4.10;;;1.83;;
16577;SDS011;8401;52.528;13.340;2022-09-03T09:25:07;4.95;;;2.03;;
16577;SDS011;8401;52.528;13.340;2022-09-03T09:28:29;4.63;;;1.75;;
16577;SDS011;8401;52.528;13.340;2022-09-03T09:30:53;5.20;;;1.92;;
16577;SDS011;8401;52.528;13.340;2022-09-03T09:33:20;3.15;;;1.52;;
16577;SDS011;8401;52.528;13.340;2022-09-03T09:35:46;3.42;;;1.40;;
16577;SDS011;8401;52.528;13.340;2022-09-03T09:38:12;2.83;;;2.00;;
16577;SDS011;8401;52.528;13.340;2022-09-03T09:40:39;3.13;;;2.50;;
16577;SDS011;8401;52.528;13.340;2022-09-03T09:43:13;4.22;;;2.20;;
16577;SDS011;8401;52.528;13.340;2022-09-03T09:45:41;5.28;;;2.75;;
16577;SDS011;8401;52.528;13.340;2022-09-03T09:48:12;3.15;;;1.58;;
16577;SDS011;8401;52.528;13.340;2022-09-03T09:50:43;3.05;;;1.77;;
16577;SDS011;8401;52.528;13.340;2022-09-03T09:53:09;2.53;;;1.60;;
16577;SDS011;8401;52.528;13.340;2022-09-03T09:56:18;4.57;;;1.52;;
16577;SDS011;8401;52.528;13.340;2022-09-03T09:58:31;2.95;;;1.60;;
16577;SDS011;8401;52.528;13.340;2022-09-03T10:01:11;3.75;;;2.47;;
16577;SDS011;8401;52.528;13.340;2022-09-03T10:03:54;2.88;;;1.50;;
16577;SDS011;8401;52.528;13.340;2022-09-03T10:06:24;3.22;;;2.35;;
16577;SDS011;8401;52.528;13.340;2022-09-03T10:09:19;3.53;;;2.00;;
16577;SDS011;8401;52.528;13.340;2022-09-03T10:11:55;3.50;;;1.80;;
16577;SDS011;8401;52.528;13.340;2022-09-03T10:14:29;1.98;;;1.63;;
16577;SDS011;8401;52.528;13.340;2022-09-03T10:17:02;3.42;;;1.63;;
16577;SDS011;8401;52.528;13.340;2022-09-03T10:22:42;4.10;;;2.08;;
16577;SDS011;8401;52.528;13.340;2022-09-03T10:25:14;1.80;;;1.40;;
16577;SDS011;8401;52.528;13.340;2022-09-03T10:27:41;2.13;;;1.52;;
16577;SDS011;8401;52.528;13.340;2022-09-03T10:30:10;4.28;;;2.10;;
16577;SDS011;8401;52.528;13.340;2022-09-03T10:32:56;5.03;;;2.00;;
16577;SDS011;8401;52.528;13.340;2022-09-03T10:35:49;3.63;;;1.48;;
16577;SDS011;8401;52.528;13.340;2022-09-03T10:38:32;5.13;;;2.03;;
16577;SDS011;8401;52.528;13.340;2022-09-03T10:52:06;1.95;;;1.30;;
16577;SDS011;8401;52.528;13.340;2022-09-03T10:57:43;3.85;;;1.48;;
16577;SDS011;8401;52.528;13.340;2022-09-03T11:00:11;4.05;;;2.22;;
16577;SDS011;8401;52.528;13.340;2022-09-03T11:06:02;5.10;;;2.80;;
16577;SDS011;8401;52.528;13.340;2022-09-03T11:08:33;4.72;;;2.63;;
16577;SDS011;8401;52.528;13.340;2022-09-03T11:11:09;2.60;;;1.70;;
16577;SDS011;8401;52.528;13.340;2022-09-03T11:13:43;5.38;;;3.58;;
16577;SDS011;8401;52.528;13.340;2022-09-03T11:16:25;4.63;;;1.60;;
16577;SDS011;8401;52.528;13.340;2022-09-03T11:19:19;5.32;;;3.47;;
16577;SDS011;8401;52.528;13.340;2022-09-03T11:21:56;6.95;;;3.72;;
16577;SDS011;8401;52.528;13.340;2022-09-03T11:24:23;3.90;;;2.33;;
16577;SDS011;8401;52.528;13.340;2022-09-03T11:27:01;3.03;;;2.60;;
16577;SDS011;8401;52.528;13.340;2022-09-03T11:35:12;3.08;;;1.52;;
16577;SDS011;8401;52.528;13.340;2022-09-03T11:43:38;2.80;;;1.98;;
16577;SDS011;8401;52.528;13.340;2022-09-03T11:46:06;5.90;;;1.73;;
16577;SDS011;8401;52.528;13.340;2022-09-03T11:51:17;3.15;;;2.17;;
16577;SDS011;8401;52.528;13.340;2022-09-03T11:54:01;2.60;;;2.20;;
16577;SDS011;8401;52.528;13.340;2022-09-03T11:57:02;3.50;;;1.80;;
16577;SDS011;8401;52.528;13.340;2022-09-03T11:59:34;2.53;;;2.30;;
16577;SDS011;8401;52.528;13.340;2022-09-03T12:04:36;3.08;;;2.05;;
16577;SDS011;8401;52.528;13.340;2022-09-03T12:15:19;2.58;;;1.38;;
16577;SDS011;8401;52.528;13.340;2022-09-03T12:17:50;2.47;;;1.35;;
16577;SDS011;8401;52.528;13.340;2022-09-03T12:20:40;3.67;;;1.63;;
16577;SDS011;8401;52.528;13.340;2022-09-03T12:23:06;2.97;;;1.10;;
16577;SDS011;8401;52.528;13.340;2022-09-03T12:25:41;1.92;;;1.33;;
16577;SDS011;8401;52.528;13.340;2022-09-03T12:28:11;1.92;;;1.38;;
16577;SDS011;8401;52.528;13.340;2022-09-03T12:30:41;1.98;;;1.33;;
16577;SDS011;8401;52.528;13.340;2022-09-03T12:33:08;3.83;;;1.50;;
16577;SDS011;8401;52.528;13.340;2022-09-03T12:35:40;1.83;;;1.20;;
16577;SDS011;8401;52.528;13.340;2022-09-03T12:38:06;1.73;;;1.20;;
16577;SDS011;8401;52.528;13.340;2022-09-03T12:40:32;3.50;;;1.00;;
16577;SDS011;8401;52.528;13.340;2022-09-03T12:43:14;3.20;;;1.45;;
16577;SDS011;8401;52.528;13.340;2022-09-03T12:45:42;4.65;;;1.67;;
16577;SDS011;8401;52.528;13.340;2022-09-03T12:48:13;2.60;;;1.10;;
16577;SDS011;8401;52.528;13.340;2022-09-03T12:50:40;2.38;;;1.27;;
16577;SDS011;8401;52.528;13.340;2022-09-03T12:53:06;2.95;;;1.40;;
16577;SDS011;8401;52.528;13.340;2022-09-03T13:00:35;2.22;;;1.50;;
16577;SDS011;8401;52.528;13.340;2022-09-03T13:03:09;1.25;;;1.00;;
16577;SDS011;8401;52.528;13.340;2022-09-03T13:05:42;2.53;;;1.25;;
16577;SDS011;8401;52.528;13.340;2022-09-03T13:08:21;9.65;;;2.53;;
16577;SDS011;8401;52.528;13.340;2022-09-03T13:10:51;3.50;;;2.30;;
16577;SDS011;8401;52.528;13.340;2022-09-03T13:13:21;2.95;;;1.95;;
16577;SDS011;8401;52.528;13.340;2022-09-03T13:24:41;1.92;;;1.50;;
16577;SDS011;8401;52.528;13.340;2022-09-03T13:27:15;3.08;;;1.58;;
16577;SDS011;8401;52.528;13.340;2022-09-03T13:30:03;3.03;;;1.90;;
16577;SDS011;8401;52.528;13.340;2022-09-03T13:32:55;4.53;;;1.80;;
16577;SDS011;8401;52.528;13.340;2022-09-03T13:35:41;3.58;;;1.30;;
16577;SDS011;8401;52.528;13.340;2022-09-03T13:44:00;1.73;;;1.40;;
16577;SDS011;8401;52.528;13.340;2022-09-03T13:46:47;5.10;;;2.72;;
16577;SDS011;8401;52.528;13.340;2022-09-03T13:52:39;2.53;;;1.50;;
16577;SDS011;8401;52.528;13.340;2022-09-03T13:55:11;3.60;;;1.58;;
16577;SDS011;8401;52.528;13.340;2022-09-03T14:00:27;2.17;;;1.42;;
16577;SDS011;8401;52.528;13.340;2022-09-03T14:08:32;1.85;;;1.17;;
16577;SDS011;8401;52.528;13.340;2022-09-03T14:11:28;2.63;;;1.23;;
16577;SDS011;8401;52.528;13.340;2022-09-03T14:14:18;1.48;;;1.17;;
16577;SDS011;8401;52.528;13.340;2022-09-03T14:19:39;2.38;;;1.70;;
16577;SDS011;8401;52.528;13.340;2022-09-03T14:22:28;2.85;;;2.30;;
16577;SDS011;8401;52.528;13.340;2022-09-03T14:25:18;2.88;;;1.77;;
16577;SDS011;8401;52.528;13.340;2022-09-03T14:27:45;1.45;;;1.30;;
16577;SDS011;8401;52.528;13.340;2022-09-03T14:30:19;5.57;;;1.52;;
16577;SDS011;8401;52.528;13.340;2022-09-03T14:36:02;5.05;;;2.70;;
16577;SDS011;8401;52.528;13.340;2022-09-03T14:54:23;3.78;;;2.35;;
16577;SDS011;8401;52.528;13.340;2022-09-03T14:57:02;2.78;;;1.40;;
16577;SDS011;8401;52.528;13.340;2022-09-03T14:59:57;2.13;;;1.60;;
16577;SDS011;8401;52.528;13.340;2022-09-03T15:11:15;4.07;;;1.48;;
16577;SDS011;8401;52.528;13.340;2022-09-03T15:13:44;4.30;;;2.10;;
16577;SDS011;8401;52.528;13.340;2022-09-03T15:16:20;2.85;;;1.73;;
16577;SDS011;8401;52.528;13.340;2022-09-03T15:30:11;3.15;;;1.40;;
16577;SDS011;8401;52.528;13.340;2022-09-03T15:40:55;2.53;;;1.60;;
16577;SDS011;8401;52.528;13.340;2022-09-03T15:43:29;4.07;;;1.73;;
16577;SDS011;8401;52.528;13.340;2022-09-03T15:45:58;4.15;;;2.40;;
16577;SDS011;8401;52.528;13.340;2022-09-03T15:54:45;2.40;;;1.85;;
16577;SDS011;8401;52.528;13.340;2022-09-03T15:59:59;7.22;;;3.88;;
16577;SDS011;8401;52.528;13.340;2022-09-03T16:07:54;5.05;;;3.45;;
16577;SDS011;8401;52.528;13.340;2022-09-03T16:10:21;4.22;;;3.13;;
16577;SDS011;8401;52.528;13.340;2022-09-03T16:13:29;5.00;;;1.80;;
16577;SDS011;8401;52.528;13.340;2022-09-03T16:16:01;2.58;;;2.30;;
16577;SDS011;8401;52.528;13.340;2022-09-03T16:18:36;5.93;;;2.40;;
16577;SDS011;8401;52.528;13.340;2022-09-03T16:28:59;3.65;;;2.03;;
16577;SDS011;8401;52.528;13.340;2022-09-03T16:36:53;3.22;;;2.03;;
16577;SDS011;8401;52.528;13.340;2022-09-03T16:42:11;4.75;;;3.30;;
16577;SDS011;8401;52.528;13.340;2022-09-03T16:53:14;3.35;;;2.45;;
16577;SDS011;8401;52.528;13.340;2022-09-03T17:01:12;5.15;;;3.13;;
16577;SDS011;8401;52.528;13.340;2022-09-03T17:17:14;5.40;;;3.20;;
16577;SDS011;8401;52.528;13.340;2022-09-03T17:20:08;5.28;;;2.92;;
16577;SDS011;8401;52.528;13.340;2022-09-03T17:25:30;8.05;;;3.80;;
16577;SDS011;8401;52.528;13.340;2022-09-03T17:30:57;7.22;;;3.58;;
16577;SDS011;8401;52.528;13.340;2022-09-03T17:36:29;6.43;;;3.90;;
16577;SDS011;8401;52.528;13.340;2022-09-03T17:39:08;5.70;;;2.95;;
16577;SDS011;8401;52.528;13.340;2022-09-03T17:42:14;6.47;;;3.83;;
16577;SDS011;8401;52.528;13.340;2022-09-03T17:50:22;9.23;;;4.68;;
16577;SDS011;8401;52.528;13.340;2022-09-03T17:52:54;5.30;;;3.50;;
16577;SDS011;8401;52.528;13.340;2022-09-03T17:55:32;6.93;;;3.67;;
16577;SDS011;8401;52.528;13.340;2022-09-03T17:58:16;3.38;;;2.70;;
16577;SDS011;8401;52.528;13.340;2022-09-03T18:03:52;4.18;;;2.53;;
16577;SDS011;8401;52.528;13.340;2022-09-03T18:06:29;4.57;;;2.90;;
16577;SDS011;8401;52.528;13.340;2022-09-03T18:14:33;6.25;;;4.32;;
16577;SDS011;8401;52.528;13.340;2022-09-03T18:17:08;6.63;;;3.80;;
16577;SDS011;8401;52.528;13.340;2022-09-03T18:19:43;6.28;;;3.72;;
16577;SDS011;8401;52.528;13.340;2022-09-03T18:22:42;6.35;;;4.03;;
16577;SDS011;8401;52.528;13.340;2022-09-03T18:25:28;10.03;;;5.43;;
16577;SDS011;8401;52.528;13.340;2022-09-03T18:28:15;8.07;;;4.43;;
16577;SDS011;8401;52.528;13.340;2022-09-03T18:31:14;4.50;;;3.28;;
16577;SDS011;8401;52.528;13.340;2022-09-03T18:33:59;7.55;;;4.30;;
16577;SDS011;8401;52.528;13.340;2022-09-03T18:36:45;5.27;;;3.60;;
16577;SDS011;8401;52.528;13.340;2022-09-03T18:39:30;6.60;;;3.77;;
16577;SDS011;8401;52.528;13.340;2022-09-03T18:42:36;8.13;;;4.70;;
16577;SDS011;8401;52.528;13.340;2022-09-03T18:46:23;5.33;;;3.00;;
16577;SDS011;8401;52.528;13.340;2022-09-03T18:51:54;8.50;;;5.13;;
16577;SDS011;8401;52.528;13.340;2022-09-03T18:58:28;6.23;;;2.97;;
16577;SDS011;8401;52.528;13.340;2022-09-03T19:01:29;5.97;;;3.90;;
16577;SDS011;8401;52.528;13.340;2022-09-03T19:04:28;4.53;;;2.37;;
16577;SDS011;8401;52.528;13.340;2022-09-03T19:10:16;4.67;;;3.33;;
16577;SDS011;8401;52.528;13.340;2022-09-03T19:16:30;4.57;;;3.03;;
16577;SDS011;8401;52.528;13.340;2022-09-03T19:22:29;4.37;;;3.43;;
16577;SDS011;8401;52.528;13.340;2022-09-03T19:25:21;6.10;;;3.47;;
16577;SDS011;8401;52.528;13.340;2022-09-03T19:31:10;6.07;;;3.33;;
16577;SDS011;8401;52.528;13.340;2022-09-03T19:46:39;4.97;;;2.57;;
16577;SDS011;8401;52.528;13.340;2022-09-03T19:52:40;4.63;;;3.07;;
16577;SDS011;8401;52.528;13.340;2022-09-03T19:55:29;5.43;;;3.70;;
16577;SDS011;8401;52.528;13.340;2022-09-03T19:58:17;4.95;;;3.25;;
16577;SDS011;8401;52.528;13.340;2022-09-03T20:01:05;4.77;;;3.63;;
16577;SDS011;8401;52.528;13.340;2022-09-03T20:03:50;4.40;;;3.23;;
16577;SDS011;8401;52.528;13.340;2022-09-03T20:06:34;7.00;;;2.73;;
16577;SDS011;8401;52.528;13.340;2022-09-03T20:09:21;8.03;;;2.97;;
16577;SDS011;8401;52.528;13.340;2022-09-03T20:12:10;9.23;;;5.03;;
16577;SDS011;8401;52.528;13.340;2022-09-03T20:14:37;6.90;;;3.80;;
16577;SDS011;8401;52.528;13.340;2022-09-03T20:17:25;4.30;;;3.20;;
16577;SDS011;8401;52.528;13.340;2022-09-03T20:22:55;5.43;;;3.00;;
16577;SDS011;8401;52.528;13.340;2022-09-03T20:25:52;5.20;;;2.80;;
16577;SDS011;8401;52.528;13.340;2022-09-03T20:31:02;6.93;;;3.20;;
16577;SDS011;8401;52.528;13.340;2022-09-03T20:36:49;8.30;;;2.73;;
16577;SDS011;8401;52.528;13.340;2022-09-03T20:40:03;4.50;;;2.90;;
16577;SDS011;8401;52.528;13.340;2022-09-03T20:48:07;3.20;;;2.50;;
16577;SDS011;8401;52.528;13.340;2022-09-03T20:56:32;5.53;;;3.63;;
16577;SDS011;8401;52.528;13.340;2022-09-03T20:59:02;6.83;;;5.20;;
16577;SDS011;8401;52.528;13.340;2022-09-03T21:07:10;6.00;;;2.63;;
16577;SDS011;8401;52.528;13.340;2022-09-03T21:09:59;3.40;;;2.70;;
16577;SDS011;8401;52.528;13.340;2022-09-03T21:12:42;5.27;;;3.07;;
16577;SDS011;8401;52.528;13.340;2022-09-03T21:23:46;2.77;;;2.53;;
16577;SDS011;8401;52.528;13.340;2022-09-03T21:26:20;2.30;;;1.80;;
16577;SDS011;8401;52.528;13.340;2022-09-03T21:31:47;5.47;;;2.93;;
16577;SDS011;8401;52.528;13.340;2022-09-03T21:37:03;4.13;;;3.03;;
16577;SDS011;8401;52.528;13.340;2022-09-03T21:39:40;5.77;;;2.80;;